Time;durP1;ratioP1;P1;durP2;ratioP2;P2;SDS_P1;SDS_P2;PMS_P1;PMS_P2;Temp;Humidity;BMP_temperature;BMP_pressure;BME280_temperature;BME280_humidity;BME280_pressure;Samples;Min_cycle;Max_cycle;Signal;HPM_P1;HPM_P2
2022/04/28 00:03:28;;;;;;;9.93;3.10;;;;;;;;;;10518016;28;20027;-73
2022/04/28 00:08:29;;;;;;;5.78;2.88;;;;;;;;;;10490793;28;20032;-74
2022/04/28 00:13:29;;;;;;;4.40;2.60;;;;;;;;;;10493611;28;20025;-76
2022/04/28 00:18:29;;;;;;;7.03;3.25;;;;;;;;;;10528902;28;20791;-74
2022/04/28 00:23:30;;;;;;;7.57;3.00;;;;;;;;;;10526107;28;20032;-73
2022/04/28 00:28:30;;;;;;;4.30;2.72;;;;;;;;;;10540373;28;20031;-77
2022/04/28 00:33:30;;;;;;;8.63;4.55;;;;;;;;;;10557958;28;20124;-74
2022/04/28 00:38:30;;;;;;;8.77;3.28;;;;;;;;;;10557896;28;20019;-74
2022/04/28 00:43:31;;;;;;;7.95;3.33;;;;;;;;;;10512773;28;20048;-72
2022/04/28 00:53:51;;;;;;;4.60;2.58;;;;;;;;;;10491425;28;20415;-78
2022/04/28 00:58:51;;;;;;;6.13;2.88;;;;;;;;;;10489978;28;20025;-75
2022/04/28 01:03:51;;;;;;;8.90;2.97;;;;;;;;;;10502437;28;20055;-73
2022/04/28 01:08:52;;;;;;;8.23;3.50;;;;;;;;;;10530812;28;20049;-76
2022/04/28 01:13:52;;;;;;;7.90;2.95;;;;;;;;;;10514929;28;20077;-76
2022/04/28 01:18:53;;;;;;;4.28;2.90;;;;;;;;;;10513415;28;20020;-72
2022/04/28 01:23:54;;;;;;;6.57;3.60;;;;;;;;;;10529778;28;20035;-77
2022/04/28 01:28:55;;;;;;;5.15;3.55;;;;;;;;;;10513999;28;20051;-72
2022/04/28 01:33:55;;;;;;;4.57;3.47;;;;;;;;;;10496392;28;20119;-75
2022/04/28 01:38:56;;;;;;;6.85;5.03;;;;;;;;;;10513963;28;20020;-72
2022/04/28 01:43:56;;;;;;;11.10;6.95;;;;;;;;;;10531078;28;20028;-77
2022/04/28 01:48:57;;;;;;;11.52;6.20;;;;;;;;;;10512334;28;20052;-72
2022/04/28 01:59:16;;;;;;;12.07;7.05;;;;;;;;;;10531305;28;20036;-72
2022/04/28 02:04:16;;;;;;;15.23;7.32;;;;;;;;;;10512336;28;20020;-75
2022/04/28 02:09:16;;;;;;;12.32;7.63;;;;;;;;;;10530131;28;20024;-72
2022/04/28 02:14:17;;;;;;;15.83;7.70;;;;;;;;;;10512185;28;20032;-73
2022/04/28 02:19:18;;;;;;;11.93;8.03;;;;;;;;;;10530031;28;20044;-76
2022/04/28 02:24:18;;;;;;;8.95;7.35;;;;;;;;;;10494599;28;20518;-72
2022/04/28 02:29:18;;;;;;;13.77;7.68;;;;;;;;;;10528725;28;20034;-73
2022/04/28 02:34:19;;;;;;;9.25;7.20;;;;;;;;;;10510828;28;20098;-72
2022/04/28 02:39:19;;;;;;;13.20;9.40;;;;;;;;;;10528088;28;20506;-74
2022/04/28 02:44:19;;;;;;;16.17;7.13;;;;;;;;;;10527476;28;20024;-74
2022/04/28 02:49:20;;;;;;;12.13;8.25;;;;;;;;;;10527400;28;20052;-73
2022/04/28 02:54:20;;;;;;;12.43;6.60;;;;;;;;;;10527172;28;20032;-78
2022/04/28 02:59:20;;;;;;;14.30;7.32;;;;;;;;;;10510105;28;20344;-74
2022/04/28 03:04:25;;;;;;;12.93;7.40;;;;;;;;;;10510417;28;20028;-76
2022/04/28 03:14:44;;;;;;;7.63;5.82;;;;;;;;;;10528951;28;20468;-73
2022/04/28 03:19:45;;;;;;;10.02;6.55;;;;;;;;;;10526957;28;20024;-76
2022/04/28 03:24:45;;;;;;;9.25;6.95;;;;;;;;;;10526849;28;20035;-73
2022/04/28 03:29:45;;;;;;;10.65;6.15;;;;;;;;;;10526244;28;20080;-70
2022/04/28 03:34:46;;;;;;;13.97;6.87;;;;;;;;;;10526081;28;20024;-73
2022/04/28 03:39:46;;;;;;;9.52;6.63;;;;;;;;;;10527357;28;20028;-74
2022/04/28 03:44:47;;;;;;;13.07;6.18;;;;;;;;;;10494287;28;20110;-74
2022/04/28 03:49:47;;;;;;;7.57;5.57;;;;;;;;;;10535447;28;20158;-71
2022/04/28 03:54:47;;;;;;;10.98;5.93;;;;;;;;;;10534856;28;20032;-77
2022/04/28 03:59:48;;;;;;;12.63;7.68;;;;;;;;;;10516599;28;20906;-72
2022/04/28 04:04:48;;;;;;;15.48;7.72;;;;;;;;;;10517570;28;20119;-71
2022/04/28 04:09:48;;;;;;;16.27;9.23;;;;;;;;;;10535559;28;20035;-75
2022/04/28 04:14:49;;;;;;;22.90;13.50;;;;;;;;;;10534948;28;20115;-73
2022/04/28 04:19:49;;;;;;;13.43;10.43;;;;;;;;;;10502380;28;20027;-75
2022/04/28 04:24:49;;;;;;;14.98;10.48;;;;;;;;;;10513568;28;20511;-75
2022/04/28 04:29:49;;;;;;;12.70;8.95;;;;;;;;;;10533755;28;20032;-73
2022/04/28 04:34:50;;;;;;;14.73;8.98;;;;;;;;;;10518140;28;20609;-72
2022/04/28 04:39:50;;;;;;;18.75;11.32;;;;;;;;;;10576053;28;20488;-77
2022/04/28 04:44:50;;;;;;;13.98;9.90;;;;;;;;;;10533749;28;20020;-73
2022/04/28 04:49:51;;;;;;;19.13;10.82;;;;;;;;;;10516048;28;20078;-79
2022/04/28 04:54:51;;;;;;;13.53;9.20;;;;;;;;;;10545414;28;20035;-72
2022/04/28 04:59:51;;;;;;;14.20;8.67;;;;;;;;;;10542601;28;20255;-72
2022/04/28 05:04:52;;;;;;;8.93;6.90;;;;;;;;;;10514115;28;20020;-79
2022/04/28 05:09:52;;;;;;;13.07;6.95;;;;;;;;;;10546890;28;20025;-72
2022/04/28 05:14:52;;;;;;;5.22;4.63;;;;;;;;;;10525811;28;20057;-74
2022/04/28 05:19:56;;;;;;;10.93;4.43;;;;;;;;;;10493855;28;20107;-75
2022/04/28 05:24:56;;;;;;;4.93;3.65;;;;;;;;;;10506189;28;20029;-73
2022/04/28 05:29:57;;;;;;;7.10;3.13;;;;;;;;;;10471660;28;20037;-73
2022/04/28 05:34:57;;;;;;;8.50;2.57;;;;;;;;;;10503786;28;20107;-74
2022/04/28 05:39:57;;;;;;;3.25;2.47;;;;;;;;;;10471733;28;20791;-76
2022/04/28 05:50:17;;;;;;;2.88;1.88;;;;;;;;;;10489070;28;20056;-72
2022/04/28 05:55:17;;;;;;;2.97;1.90;;;;;;;;;;10503746;28;20055;-71
2022/04/28 06:00:17;;;;;;;2.45;1.83;;;;;;;;;;10487198;28;20016;-72
2022/04/28 06:05:18;;;;;;;2.13;1.52;;;;;;;;;;10488621;28;20408;-76
2022/04/28 06:10:18;;;;;;;3.42;1.70;;;;;;;;;;10486458;28;20023;-76
2022/04/28 06:15:19;;;;;;;4.22;2.00;;;;;;;;;;10487600;28;20487;-75
2022/04/28 06:20:19;;;;;;;4.33;1.90;;;;;;;;;;10504084;28;20616;-77
2022/04/28 06:25:19;;;;;;;2.63;2.00;;;;;;;;;;10503174;28;20104;-76
2022/04/28 06:30:20;;;;;;;2.67;1.58;;;;;;;;;;10485841;28;20025;-78
2022/04/28 06:35:20;;;;;;;1.98;1.77;;;;;;;;;;10503043;28;20025;-75
2022/04/28 06:40:21;;;;;;;4.18;1.63;;;;;;;;;;10502562;28;20024;-72
2022/04/28 06:45:21;;;;;;;3.67;2.00;;;;;;;;;;10505176;28;20048;-73
2022/04/28 06:50:22;;;;;;;3.70;2.00;;;;;;;;;;10510860;28;20051;-72
2022/04/28 06:55:22;;;;;;;9.05;2.10;;;;;;;;;;10528578;28;20403;-71
2022/04/28 07:00:22;;;;;;;5.28;1.17;;;;;;;;;;10510526;28;20040;-76
2022/04/28 07:05:23;;;;;;;2.13;1.50;;;;;;;;;;10526185;28;20034;-76
2022/04/28 07:10:23;;;;;;;1.70;1.15;;;;;;;;;;10527158;28;20020;-73
2022/04/28 07:15:23;;;;;;;3.03;1.37;;;;;;;;;;10526848;28;20057;-73
2022/04/28 07:20:24;;;;;;;1.42;1.33;;;;;;;;;;10525383;28;20028;-73
2022/04/28 07:25:24;;;;;;;1.73;1.42;;;;;;;;;;10526254;28;20085;-73
2022/04/28 07:30:26;;;;;;;1.30;1.20;;;;;;;;;;10526210;28;20080;-76
2022/04/28 07:35:26;;;;;;;2.40;1.63;;;;;;;;;;10509101;28;20036;-76
2022/04/28 07:40:26;;;;;;;2.17;1.50;;;;;;;;;;10526104;28;20099;-73
2022/04/28 07:45:27;;;;;;;3.47;1.73;;;;;;;;;;10487381;28;20059;-75
2022/04/28 07:50:29;;;;;;;3.65;1.15;;;;;;;;;;10522786;28;20032;-73
2022/04/28 07:55:29;;;;;;;3.67;1.20;;;;;;;;;;10527545;28;20009;-73
2022/04/28 08:00:30;;;;;;;2.15;1.55;;;;;;;;;;10525911;28;20016;-77
2022/04/28 08:05:30;;;;;;;1.70;1.55;;;;;;;;;;10525622;28;20043;-73
2022/04/28 08:10:30;;;;;;;2.43;1.87;;;;;;;;;;10491795;28;20158;-76
2022/04/28 08:15:30;;;;;;;3.45;1.88;;;;;;;;;;10526376;28;20044;-73
2022/04/28 08:20:31;;;;;;;3.72;1.52;;;;;;;;;;10525655;28;20027;-72
2022/04/28 08:25:31;;;;;;;3.45;1.90;;;;;;;;;;10526316;28;20031;-76
2022/04/28 08:30:31;;;;;;;4.47;2.50;;;;;;;;;;10527692;28;20024;-80
2022/04/28 08:35:32;;;;;;;5.95;2.17;;;;;;;;;;10516708;28;20490;-73
2022/04/28 08:40:32;;;;;;;2.38;1.52;;;;;;;;;;10533162;28;20081;-72
2022/04/28 08:45:37;;;;;;;7.60;2.00;;;;;;;;;;10532312;28;20048;-73
2022/04/28 08:50:38;;;;;;;8.70;2.75;;;;;;;;;;10534049;28;20028;-73
2022/04/28 08:55:38;;;;;;;5.68;2.40;;;;;;;;;;10515057;28;20024;-72
2022/04/28 09:00:38;;;;;;;6.90;2.20;;;;;;;;;;10533957;28;20016;-76
2022/04/28 09:05:40;;;;;;;2.97;2.20;;;;;;;;;;10514956;28;20026;-72
2022/04/28 09:10:40;;;;;;;3.90;2.88;;;;;;;;;;10531016;28;20107;-73
2022/04/28 09:15:41;;;;;;;3.88;2.30;;;;;;;;;;10513993;28;20063;-78
2022/04/28 09:20:42;;;;;;;7.95;2.15;;;;;;;;;;10532713;28;20031;-71
2022/04/28 09:25:43;;;;;;;4.63;2.13;;;;;;;;;;10531846;28;20194;-72
2022/04/28 09:30:45;;;;;;;6.05;2.15;;;;;;;;;;10513582;28;20020;-72
2022/04/28 09:35:52;;;;;;;3.70;2.47;;;;;;;;;;10513804;28;20103;-73
2022/04/28 09:46:11;;;;;;;4.80;3.00;;;;;;;;;;10531123;28;20056;-75
2022/04/28 09:51:13;;;;;;;7.00;2.97;;;;;;;;;;10531089;28;20020;-76
2022/04/28 09:56:14;;;;;;;6.25;3.53;;;;;;;;;;10513255;28;20142;-73
2022/04/28 10:01:15;;;;;;;4.70;2.75;;;;;;;;;;10512701;28;20491;-79
2022/04/28 10:06:16;;;;;;;4.90;2.50;;;;;;;;;;10528966;28;20031;-73
2022/04/28 10:11:20;;;;;;;10.02;3.67;;;;;;;;;;10511659;28;20012;-79
2022/04/28 10:16:22;;;;;;;4.90;2.08;;;;;;;;;;10511892;28;20024;-76
2022/04/28 10:21:25;;;;;;;5.32;2.80;;;;;;;;;;10530151;28;20090;-74
2022/04/28 10:37:13;;;;;;;7.82;3.00;;;;;;;;;;10529299;28;20024;-77
2022/04/28 10:42:34;;;;;;;6.22;2.88;;;;;;;;;;10527896;28;20020;-73
2022/04/28 10:47:38;;;;;;;7.88;3.47;;;;;;;;;;10499879;28;20151;-73
2022/04/28 10:52:39;;;;;;;8.13;2.95;;;;;;;;;;10510817;28;20078;-78
2022/04/28 10:57:40;;;;;;;5.38;3.13;;;;;;;;;;10510527;28;20034;-74
2022/04/28 11:02:42;;;;;;;4.63;3.13;;;;;;;;;;10526865;28;20073;-74
2022/04/28 11:07:45;;;;;;;5.50;3.08;;;;;;;;;;10527010;28;20479;-78
2022/04/28 11:12:46;;;;;;;3.75;2.85;;;;;;;;;;10509693;28;20032;-78
2022/04/28 11:17:46;;;;;;;9.95;3.95;;;;;;;;;;10526545;28;20020;-73
2022/04/28 11:22:48;;;;;;;7.22;3.63;;;;;;;;;;10528600;28;20032;-79
2022/04/28 11:27:50;;;;;;;9.52;3.15;;;;;;;;;;10509746;28;20503;-79
2022/04/28 11:32:57;;;;;;;5.97;3.25;;;;;;;;;;10509531;28;20035;-73
2022/04/28 11:37:57;;;;;;;5.80;4.07;;;;;;;;;;10526140;28;20062;-73
2022/04/28 11:42:58;;;;;;;9.13;4.27;;;;;;;;;;10527040;28;20042;-73
2022/04/28 11:48:00;;;;;;;8.05;4.32;;;;;;;;;;10509413;28;20681;-78
2022/04/28 11:53:00;;;;;;;11.65;4.43;;;;;;;;;;10509594;28;20035;-74
2022/04/28 11:58:02;;;;;;;7.72;4.30;;;;;;;;;;10525182;28;20032;-72
2022/04/28 12:03:03;;;;;;;8.93;4.60;;;;;;;;;;10526804;28;20024;-73
2022/04/28 12:08:04;;;;;;;5.05;3.42;;;;;;;;;;10516225;28;20524;-73
2022/04/28 12:23:45;;;;;;;10.23;5.35;;;;;;;;;;10520012;28;20103;-73
2022/04/28 12:28:46;;;;;;;9.52;5.78;;;;;;;;;;10516192;28;20085;-73
2022/04/28 12:33:46;;;;;;;10.07;5.22;;;;;;;;;;10515280;28;20024;-76
2022/04/28 12:38:49;;;;;;;12.10;5.57;;;;;;;;;;10532767;28;20027;-73
2022/04/28 12:43:50;;;;;;;10.88;5.15;;;;;;;;;;10515061;28;20024;-73
2022/04/28 12:48:53;;;;;;;11.88;5.22;;;;;;;;;;10520888;28;20139;-72
2022/04/28 12:53:54;;;;;;;9.30;4.75;;;;;;;;;;10490790;28;20035;-72
2022/04/28 12:58:56;;;;;;;15.43;4.55;;;;;;;;;;10524533;28;20016;-74
2022/04/28 13:03:58;;;;;;;10.43;4.57;;;;;;;;;;10518911;28;20032;-75
2022/04/28 13:09:00;;;;;;;16.55;4.93;;;;;;;;;;10535129;28;20052;-76
2022/04/28 13:14:00;;;;;;;8.13;4.15;;;;;;;;;;10544866;28;20024;-71
2022/04/28 13:19:01;;;;;;;13.75;5.13;;;;;;;;;;10535374;28;20426;-76
2022/04/28 13:24:02;;;;;;;8.85;5.50;;;;;;;;;;10528915;28;20028;-74
2022/04/28 13:29:02;;;;;;;9.77;5.57;;;;;;;;;;10535739;28;20022;-70
2022/04/28 13:34:03;;;;;;;11.98;4.88;;;;;;;;;;10531587;28;20024;-74
2022/04/28 13:39:03;;;;;;;11.32;5.18;;;;;;;;;;10516193;28;20035;-75
2022/04/28 13:44:06;;;;;;;11.20;5.60;;;;;;;;;;10553079;28;20024;-78
2022/04/28 13:49:06;;;;;;;15.07;5.63;;;;;;;;;;10550997;28;20036;-76
2022/04/28 13:54:07;;;;;;;9.63;5.83;;;;;;;;;;10551196;28;20161;-72
2022/04/28 13:59:07;;;;;;;11.38;6.72;;;;;;;;;;10540718;28;20771;-73
2022/04/28 14:04:07;;;;;;;14.13;6.32;;;;;;;;;;10531107;28;20043;-71
2022/04/28 14:09:07;;;;;;;23.50;7.55;;;;;;;;;;10517879;28;20963;-76
2022/04/28 14:14:08;;;;;;;13.32;7.18;;;;;;;;;;10536550;28;20020;-77
2022/04/28 14:19:08;;;;;;;14.70;7.57;;;;;;;;;;10536921;28;20187;-72
2022/04/28 14:24:08;;;;;;;13.93;6.90;;;;;;;;;;10538981;28;20052;-71
2022/04/28 14:29:09;;;;;;;10.60;7.77;;;;;;;;;;10534673;28;20023;-75
2022/04/28 14:34:09;;;;;;;17.57;7.77;;;;;;;;;;10534018;28;20644;-75
2022/04/28 14:39:10;;;;;;;13.57;7.32;;;;;;;;;;10520566;28;20560;-74
2022/04/28 14:44:10;;;;;;;10.73;6.93;;;;;;;;;;10523632;28;20573;-72
2022/04/28 14:54:29;;;;;;;15.27;6.85;;;;;;;;;;10536202;28;20056;-72
2022/04/28 14:59:30;;;;;;;16.25;6.47;;;;;;;;;;10523085;28;20542;-70
2022/04/28 15:04:30;;;;;;;15.15;7.15;;;;;;;;;;10540591;28;20084;-73
2022/04/28 15:09:30;;;;;;;17.37;7.13;;;;;;;;;;10551461;28;20016;-73
2022/04/28 15:14:31;;;;;;;11.88;7.20;;;;;;;;;;10551184;28;20042;-75
2022/04/28 15:19:32;;;;;;;13.98;6.40;;;;;;;;;;10551545;28;20027;-71
2022/04/28 15:24:34;;;;;;;11.30;5.68;;;;;;;;;;10551636;28;20051;-76
2022/04/28 15:29:34;;;;;;;13.88;7.85;;;;;;;;;;10551513;28;20020;-71
2022/04/28 15:34:35;;;;;;;13.43;6.35;;;;;;;;;;10551325;28;20539;-71
2022/04/28 15:39:36;;;;;;;19.58;5.95;;;;;;;;;;10568443;28;20076;-71
2022/04/28 15:44:37;;;;;;;9.05;4.30;;;;;;;;;;10550968;28;20114;-71
2022/04/28 15:49:37;;;;;;;13.30;3.72;;;;;;;;;;10550654;28;20047;-73
2022/04/28 15:54:37;;;;;;;9.32;4.07;;;;;;;;;;10550402;28;20480;-72
2022/04/28 15:59:38;;;;;;;6.23;2.97;;;;;;;;;;10551316;28;20494;-72
2022/04/28 16:04:39;;;;;;;5.28;3.42;;;;;;;;;;10550701;28;20081;-72
2022/04/28 16:09:39;;;;;;;11.50;3.40;;;;;;;;;;10550373;28;20072;-71
2022/04/28 16:14:39;;;;;;;9.85;3.63;;;;;;;;;;10543199;28;20020;-70
2022/04/28 16:19:39;;;;;;;7.03;3.45;;;;;;;;;;10523990;28;20574;-70
2022/04/28 16:24:40;;;;;;;7.80;4.05;;;;;;;;;;10508154;28;20101;-74
2022/04/28 16:29:40;;;;;;;8.43;4.55;;;;;;;;;;10500220;28;20115;-70
2022/04/28 16:34:41;;;;;;;8.20;4.43;;;;;;;;;;10522196;28;20028;-74
2022/04/28 16:39:41;;;;;;;11.70;3.85;;;;;;;;;;10496078;28;20477;-70
2022/04/28 16:44:41;;;;;;;4.88;3.45;;;;;;;;;;10495639;28;20012;-72
2022/04/28 16:49:42;;;;;;;6.30;3.90;;;;;;;;;;10507208;28;20047;-72
2022/04/28 16:54:42;;;;;;;6.82;3.38;;;;;;;;;;10490050;28;20740;-72
2022/04/28 16:59:43;;;;;;;6.00;3.63;;;;;;;;;;10488888;28;20023;-74
2022/04/28 17:04:43;;;;;;;10.50;4.07;;;;;;;;;;10534687;28;20031;-72
2022/04/28 17:09:44;;;;;;;10.63;3.77;;;;;;;;;;10545458;28;20467;-78
2022/04/28 17:14:44;;;;;;;7.43;4.25;;;;;;;;;;10551604;28;20483;-74
2022/04/28 17:19:44;;;;;;;6.93;4.43;;;;;;;;;;10532836;28;20020;-74
2022/04/28 17:24:45;;;;;;;7.43;3.78;;;;;;;;;;10522691;28;20038;-73
2022/04/28 17:29:45;;;;;;;9.75;4.63;;;;;;;;;;10540771;28;20012;-78
2022/04/28 17:34:46;;;;;;;9.00;3.95;;;;;;;;;;10539643;28;20105;-71
2022/04/28 17:39:46;;;;;;;7.05;4.05;;;;;;;;;;10548720;28;20024;-72
2022/04/28 17:44:47;;;;;;;13.87;4.50;;;;;;;;;;10544239;28;20239;-75
2022/04/28 17:49:47;;;;;;;7.78;4.05;;;;;;;;;;10542073;28;20061;-76
2022/04/28 17:59:53;;;;;;;9.88;4.90;;;;;;;;;;10528243;28;20088;-74
2022/04/28 18:00:08;;;;;;;6.25;4.28;;;;;;;;;;10539560;28;20059;-70
2022/04/28 18:05:08;;;;;;;9.07;5.10;;;;;;;;;;10528765;28;20131;-73
2022/04/28 18:10:08;;;;;;;10.05;4.97;;;;;;;;;;10524740;28;20073;-71
2022/04/28 18:15:09;;;;;;;9.87;5.67;;;;;;;;;;10534312;28;20063;-74
2022/04/28 18:20:09;;;;;;;9.35;5.38;;;;;;;;;;10532646;28;20020;-70
2022/04/28 18:25:10;;;;;;;9.40;5.18;;;;;;;;;;10527926;28;20512;-76
2022/04/28 18:30:10;;;;;;;7.00;5.47;;;;;;;;;;10533257;28;20437;-77
2022/04/28 18:35:11;;;;;;;7.50;5.43;;;;;;;;;;10530230;28;20152;-74
2022/04/28 18:45:30;;;;;;;16.92;5.47;;;;;;;;;;10538789;28;20032;-71
2022/04/28 18:50:31;;;;;;;10.20;4.60;;;;;;;;;;10528656;28;20024;-75
2022/04/28 18:55:31;;;;;;;8.17;5.67;;;;;;;;;;10530862;28;20682;-71
2022/04/28 19:00:35;;;;;;;9.75;5.22;;;;;;;;;;10530468;28;20126;-71
2022/04/28 19:05:36;;;;;;;10.35;5.75;;;;;;;;;;10532616;28;20089;-71
2022/04/28 19:10:37;;;;;;;9.48;5.53;;;;;;;;;;10558696;28;20618;-71
2022/04/28 19:15:37;;;;;;;12.30;6.07;;;;;;;;;;10538681;28;20023;-70
2022/04/28 19:20:38;;;;;;;12.50;7.03;;;;;;;;;;10539107;28;20558;-71
2022/04/28 19:25:39;;;;;;;12.77;7.40;;;;;;;;;;10528259;28;20795;-71
2022/04/28 19:30:40;;;;;;;13.18;7.43;;;;;;;;;;10526840;28;20024;-71
2022/04/28 19:35:42;;;;;;;11.38;7.10;;;;;;;;;;10529841;28;20019;-71
2022/04/28 19:40:43;;;;;;;19.65;7.43;;;;;;;;;;10533810;28;20038;-74
2022/04/28 19:45:44;;;;;;;12.15;6.05;;;;;;;;;;10521603;28;20132;-75
2022/04/28 19:50:44;;;;;;;9.05;6.57;;;;;;;;;;10522374;28;20024;-76
2022/04/28 19:55:46;;;;;;;18.65;7.35;;;;;;;;;;10523011;28;20104;-74
2022/04/28 20:00:47;;;;;;;8.60;6.20;;;;;;;;;;10534953;28;20020;-77
2022/04/28 20:05:48;;;;;;;8.95;6.05;;;;;;;;;;10536407;28;20024;-73
2022/04/28 20:10:48;;;;;;;8.45;5.72;;;;;;;;;;10544757;28;20111;-80
2022/04/28 20:15:50;;;;;;;8.70;6.10;;;;;;;;;;10525342;28;20478;-72
2022/04/28 20:20:50;;;;;;;7.78;5.32;;;;;;;;;;10521356;28;20109;-73
2022/04/28 20:25:52;;;;;;;8.18;5.70;;;;;;;;;;10531061;28;20027;-74
2022/04/28 20:30:52;;;;;;;8.60;5.70;;;;;;;;;;10517361;28;20399;-74
2022/04/28 20:35:54;;;;;;;12.10;6.22;;;;;;;;;;10537837;28;20026;-75
2022/04/28 20:40:55;;;;;;;10.70;6.95;;;;;;;;;;10535080;28;20507;-73
2022/04/28 20:45:55;;;;;;;11.45;5.57;;;;;;;;;;10550379;28;20040;-75
2022/04/28 20:50:56;;;;;;;10.90;6.60;;;;;;;;;;10539878;28;20020;-73
2022/04/28 20:55:56;;;;;;;10.23;6.55;;;;;;;;;;10523303;28;20418;-76
2022/04/28 21:00:56;;;;;;;16.52;8.00;;;;;;;;;;10530157;28;20040;-76
2022/04/28 21:05:57;;;;;;;14.80;9.27;;;;;;;;;;10531252;28;20039;-71
2022/04/28 21:10:57;;;;;;;16.20;8.95;;;;;;;;;;10533392;28;20031;-75
2022/04/28 21:15:57;;;;;;;13.93;9.53;;;;;;;;;;10528066;28;20042;-75
2022/04/28 21:20:58;;;;;;;16.52;11.15;;;;;;;;;;10525830;28;20490;-72
2022/04/28 21:25:58;;;;;;;15.65;8.93;;;;;;;;;;10527544;28;20078;-76
2022/04/28 21:30:59;;;;;;;15.53;9.33;;;;;;;;;;10535594;28;20022;-76
2022/04/28 21:36:00;;;;;;;17.90;9.65;;;;;;;;;;10535236;28;20052;-75
2022/04/28 21:41:00;;;;;;;15.20;9.63;;;;;;;;;;10548912;28;20040;-72
2022/04/28 21:46:03;;;;;;;17.52;10.40;;;;;;;;;;10536664;28;20036;-72
2022/04/28 21:51:04;;;;;;;18.63;10.30;;;;;;;;;;10536783;28;20040;-66
2022/04/28 21:56:05;;;;;;;19.08;10.73;;;;;;;;;;10515043;28;20028;-75
2022/04/28 22:01:07;;;;;;;16.85;10.77;;;;;;;;;;10550433;28;20058;-74
2022/04/28 22:11:26;;;;;;;17.08;9.48;;;;;;;;;;10532282;28;20468;-76
2022/04/28 22:16:27;;;;;;;16.10;9.63;;;;;;;;;;10511049;28;20016;-72
2022/04/28 22:21:27;;;;;;;19.15;10.95;;;;;;;;;;10509449;28;20024;-72
2022/04/28 22:26:29;;;;;;;17.27;11.40;;;;;;;;;;10510783;28;20483;-72
2022/04/28 22:31:29;;;;;;;21.05;10.88;;;;;;;;;;10508604;28;20031;-72
2022/04/28 22:36:30;;;;;;;15.57;10.35;;;;;;;;;;10510527;28;20028;-75
2022/04/28 22:41:30;;;;;;;18.95;12.68;;;;;;;;;;10528151;28;20028;-71
2022/04/28 22:46:31;;;;;;;19.17;11.27;;;;;;;;;;10509175;28;20044;-75
2022/04/28 22:51:33;;;;;;;19.48;11.35;;;;;;;;;;10509227;28;20334;-71
2022/04/28 22:56:34;;;;;;;18.45;11.73;;;;;;;;;;10507161;28;20494;-72
2022/04/28 23:01:35;;;;;;;19.90;11.13;;;;;;;;;;10508315;28;20020;-72
2022/04/28 23:06:35;;;;;;;18.33;11.18;;;;;;;;;;10509343;28;20483;-75
2022/04/28 23:11:35;;;;;;;18.80;11.10;;;;;;;;;;10527091;28;20020;-72
2022/04/28 23:16:36;;;;;;;17.52;10.32;;;;;;;;;;10508826;28;20020;-76
2022/04/28 23:21:37;;;;;;;18.00;11.38;;;;;;;;;;10508815;28;20499;-73
2022/04/28 23:26:37;;;;;;;17.02;10.82;;;;;;;;;;10508739;28;20076;-72
2022/04/28 23:31:37;;;;;;;22.20;11.10;;;;;;;;;;10527020;28;20024;-73
2022/04/28 23:47:16;;;;;;;16.25;10.05;;;;;;;;;;10526292;28;20067;-72
2022/04/28 23:52:17;;;;;;;15.80;10.18;;;;;;;;;;10508508;28;20482;-71
2022/04/28 23:57:26;;;;;;;19.02;10.60;;;;;;;;;;10505923;28;20035;-73
